2022年华东地区气象预报岗位轮训培训结业考试

您的姓名:
您的单位:
一、选择题:
1、台风风雨区的外围有时候会有一条类似飑线的对流回波带,称为台前飑线,常出现在台风(),回波带的走向与台风移向近于垂直。
2、从雷达回波上看起来,台风眼的外围是一个()的强回波区,这里有强烈的上升运动。
3、对台风移动路径影响最大的天气系统是()。
4、当台风上空卷云只向某一个方向扩展时,预示台风将向()移动。
5、在对流层中,通常位温是随高度()。
6、西太平洋台风的基本路径有()。
7、热带气旋眼回波越高,其强度愈( );眼壁越厚,其强度愈()。
8、在热带气旋发展的早期,云型在短时间内常常()。
9、1909“利奇马”于8月10日01:45登陆浙江温岭市城南镇,登陆时强度为()。
10、2020年第4号台风“黑格比”于8月4日03:30在()登陆,登陆时强度为台风13级(38 m/s)。
11、水平尺度在20-200公里是属于以下那个天气尺度()。
12、在中尺度分析中以下哪个不属于水汽条件分析()。
13、在中尺度分析中500hPa上槽线使用什么颜色标注()。
14、在中尺度分析中,当地面到850hPa温度露点差(T-Td)≤5 ℃或相对湿度(RH)≥(),在对流层低层分析显著湿区。
15、当等压面图上温度槽落后于高度槽时()。
16、在中尺度分析中,以下不属于高空分析要素的是()。
17、在中尺度分析中,以下哪个不属于热力不稳定条件分析()。
18、在中尺度分析中,以下哪个不属于抬升条件分析()。
19、当850hPa最大风速带中有达到急流标准的风速()出现时,标出急流核。
20、 副热带高压是一个行星尺度的高压,它是一个()。
21、MDRS橙色预警,将造成机场、终端(进近)区、航路运行保障通行能力下降多少?()
22、MDRS红色预警,将造成机场、终端(进近)区、航路运行保障通行能力下降多少?()
23、MDRS黄色预警,将造成机场、终端(进近)区、航路运行保障通行能力下降多少?()
24、下列哪项不是“引发大面积航班延误的重要天气发生概率”通报表中重要天气发生的可填报的概率?()
25、 下列哪项不是进行空中交通流量管理的目的?()
26、下列哪项天气发生的概率在“引发大面积航班延误的重要天气发生概率”通报表可不通报?()
27、主要的民用航空的气象用户一般不包括()
28、着陆预报是为满足本场航空气象用户和距离本场()小时以内飞行时间的航空器的需要而发布的预报。
29、趋势预报由机场天气报告附带的该机场气象情况预期趋势的重大变化说明组成,与所附着的机场天气报告一起发布,有效时段为()小时,起始时间为附带该趋势预报的天气报告时间。
30、趋势预报应当指明()的一个或几个要素的重大变化。只有预期有重大变化的气象要素才编报。
31、不发布趋势预报的民航气象服务机构为()
32、对于下列天气报告,其中关于0300UTC趋势预报描述正确的是:()
METAR ZXXX 170300Z 09003MPS 050V130 2800 HZ NSC 15/M00 Q1022 BECMG TL0350 3500 =
METAR ZXXX 170400Z 08004MPS 030V120 CAVOK 16/M08 Q1021 NOSIG =
SPECI ZXXX 170417Z 17005G10MPS CAVOK 15/M02 Q1021 NOSIG =
METAR ZXXX 170500Z 15004MPS 100V200 7000 NSC 17/M03 Q1020 NOSIG =
33、实践表明,()层上的气流对地面的锋面移动有引导作用,故称此气流为引导气流。
34、《民航空管系统着陆预报质量评定办法》规定,每份趋势预报最高分为()分:
35、趋势预报中变化指示码的数量应当保持最少,一般不超过()组。
36、关于趋势预报,下列说法正确的是()。
37、METAR ZXXX 010100Z 12004MPS 6000 SHRA BKN020 FEW030CB 32/28 Q1001 ,预计2小时以内,中阵雨结束,趋势预报应为()。
38、 航空器爬升中遇到冻雨时,可认为()。
39、()对起飞落地均有利。
40、飞机在空中遭雷雨的危害程度和时间长短与飞机通过()有关。
41、单个微下击暴流的估计维持时间是()。
42、雷达能够探测降水系统内部结构的原因在于降水粒子对雷达发射的电磁波的()散射。
43、 当雷达回波发生距离折叠时,雷达显示的回波位置的()是正确的;
44、当雷达反射率因子图上出现了外流边界,预示地面将出现突发性的()。
45、 在多普勒速度图象中,外流边界是低层的一个()区。
46、 下面哪种回波不属于强风暴的回波特征;()
47、双偏振雷达变量中最适合用来进行分离气象回波和非气象回波的是?()
48、雷达站附近常年出现的Z值特别大,相关系数较低的回波可能是来自?()
49、关于风廓线雷达说法不正确的是()
50、近地面层逆温主要由()引起。
51、一般情况下,气温随平均高度的增加而减少,在大气边界层,温度垂直梯度平均为()。
52、行星边界层(摩擦层)即、自地平面至()高度。
53、在 TAF预报中,预报的能见度应为()。
54、下列()不属于高空风和温度预告图的固定的标准高度层。
55、当预报BKN 或OVC 云量的最低云层或云块的云底高将上升并达到或下降且经过()时,无须使用机场预报变化组或进行机场预报修订。
56、机场预报中,变化组使用简语() 编报天气现象组,表示重要天气现象全部结束。
57、当预报风速小于()米/秒时,地面风应当预报为静风。
58、描述词 SH只能与天气现象类型的简语 RA、()、SG、GS和 GR中的一个或几个结合使用,以表示观测时有阵性降水。
59、表示天气情况转坏的特殊天气报告应在观测后( )发送;表示天气好转的特选报应在好转情况维持()以后发送。
60、预报主导能见度将变到或经过()时,无须使用机场预报变化组或进行机场预报修订。
61、第一次发布某份机场预报的修订报时,应当在其报头时间组后加注 ()。
62、根据民用航空气象标准的规定,高层重要天气预告图的飞行高度层是 ()以上.
63、 在METAR和SPECI中应报告风的( )观测平均值;在MET REPORT和 SPECIAL中应报告风的( )观测平均值。
64、在以海里 /小时为单位的高空风和温度预告图上,一个黑三角旗代表风速为多少()。
65、下列哪个简语在和CB结合使用时表示CB云在其影响区域最大覆盖率超过75%()。
66、重要天气预告图急流的标注中,当风速变化大于等于10 m/s或高度层变化大于等于()米时,用符号“‖”加以分隔。
67、风切变警报应当对可能严重影响跑道道面及其上空()米以下的风切变作出简要说明。
68、航路飞行中,高度表的气压基准面是( )。
69、在趋势型预报中“BECMG”变化指示码后可使用缩写FM、TL、AT 分别紧接相应的()的时间组指明预报变化发生的时间和时刻。
70、发布山区的低空飞行区域预报覆盖地面到飞行高度()之间的层,并包括危及低空飞行的航
路天气现象。
71、在重要天气预告图中,高空急流轴代表风速为()或以上。
72、当预报能见度上升并达到或下降且经过()时,无须使用机场预报变化组或进行机场预报
修订。
73、当机场的场压为1010.2hpa,而机长误调为1001.2hpa时,飞机实际进场高度( )。
74、TAF 中,变化指示码“BECMG”和与之结合的时间组来说明预期气象情况,一般情况下,时间间隔应不超过()小时。
75、趋势型着陆预报的趋势部分,当预报地面风的阵风()大于等于5米/秒,且变化前和(或)变化后的平均风速大于等于( )米/秒的地面风。
76、重要气象情报的有效时段应当不超过()小时,在出现火山灰和热带气旋的情况下可以延长到()小时。
77、 当低空飞行量较大时,本地区空管局指定的机场气象台应当将制作的指定时次和区域的低层重要天气预告图,通过有线传真或者其他有效方式,发往()。
78、预报中所报的任何要素的具体数值必须理解为该预报时段内该要素()的值。
79、短临预报的预报时长一般不超过( )。
80、 机场预报电文的长度和预报中说明变化的次数必须()。
二、判断题:
81、台风发生发展的四个必要条件之一是对流层风速垂直切变要大。
82、在垂直方向上,台风流场可分为低层、中层、高层。
83、除非地区航行协议或有关气象当局之间协议另有规定,机场预报应使用缩写明语形式进行交换。
84、在台风的三维风场结构中,台风眼内是下沉气流,且有强烈的下沉逆温。
85、应用变化指示码“TEMPO”和与之结合的时间组来说明预期天气情况时,每次持续时间不超过1小时,而且合计不超过预期发生波动的预报时期的1/4。
86、高架雷暴是发生在地面锋面北侧冷气团中一种雷暴,此时地面附近通常为稳定的冷空气,低层有明显的逆温。
87、准正压类是发生在大气斜压性强的地区和季节。
88、低层暖平流强迫类发生在低层700hPa以下强烈发展的暖湿平流中,并叠加上动力扰动,低层强烈暖湿平流对建立热力不稳定起了主导作用。
89、高空冷平流强迫类的强天气类型以冰雹、雷雨大风为主,可伴有少量短时强降水,属于“干”对流过程。
90、干舌以700hPa或500hPa的温度露点差(T-Td)≥15 ℃, 或相对湿度(RH)≤30%的区域显示。
91、MDRS的全称是基于空中交通通行能力的大面积航班延误响应机制。
92、协同决策CDM的英文是指Collaborative Decision Making。
93、夹卷过程使上升气块的温度递减率增大,从而使气层的不稳定能量减小,导致不稳定度的降低。
94、趋势预报应当指明地面风、能见度、天气现象和云的重大变化。只要有一个气象要素预期有重大变化,其他所有要素都应该随之编报。
95、ConvLSTM适合处理雷达图像临近预报问题的关键是将深度学习的空间维度和时间维度处理的优势进行了有机结合.
96、当预期有气象要素发生重大变化时,电码格式的趋势预报应当以变化指示码“BECMG”或“TEMPO”或“FM”标明。
97、趋势预报使用变化指示码“TEMPO”可以与指示码“FM”、“TL”、“AT”联合使用。
98、双偏振雷达和风廓线雷达都是需要发射脉冲电磁波并具有多普勒测速功能的雷达。
99、风廓线图中,等值线的密集区及密集程度可以用来识别强风切变区域。
100、当预报能见度大于等于10公里时,用1000米为一级。
更多问卷 复制此问卷